Time;durP1;ratioP1;P1;durP2;ratioP2;P2;SDS_P1;SDS_P2;PMS_P1;PMS_P2;Temp;Humidity;BMP_temperature;BMP_pressure;BME280_temperature;BME280_humidity;BME280_pressure;Samples;Min_cycle;Max_cycle;Signal;HPM_P1;HPM_P2
2023/09/03 00:00:43;;;;;;;5.00;3.92;;;;;;;;;;4996783;28;20145;-86
2023/09/03 00:03:10;;;;;;;6.60;3.90;;;;;;;;;;4996838;28;20564;-85
2023/09/03 00:05:38;;;;;;;5.25;3.35;;;;;;;;;;4979765;28;20050;-86
2023/09/03 00:08:05;;;;;;;6.40;3.50;;;;;;;;;;4979345;28;20058;-86
2023/09/03 00:10:35;;;;;;;6.55;3.33;;;;;;;;;;4978953;28;20474;-85
2023/09/03 00:13:04;;;;;;;5.22;3.50;;;;;;;;;;4996983;28;20402;-86
2023/09/03 00:15:31;;;;;;;5.75;3.60;;;;;;;;;;4979356;28;20054;-86
2023/09/03 00:17:59;;;;;;;6.93;3.55;;;;;;;;;;4996875;28;20053;-86
2023/09/03 00:20:26;;;;;;;6.20;3.22;;;;;;;;;;4979368;28;20046;-86
2023/09/03 00:22:57;;;;;;;7.88;3.17;;;;;;;;;;4980268;28;20047;-85
2023/09/03 00:25:24;;;;;;;8.13;3.10;;;;;;;;;;4979135;28;20082;-86
2023/09/03 00:27:51;;;;;;;3.88;2.92;;;;;;;;;;4996368;28;20085;-86
2023/09/03 00:30:18;;;;;;;6.80;3.30;;;;;;;;;;4979078;28;20101;-86
2023/09/03 00:32:46;;;;;;;10.77;3.80;;;;;;;;;;4996633;28;20553;-86
2023/09/03 00:35:13;;;;;;;10.88;3.78;;;;;;;;;;4979398;28;20053;-86
2023/09/03 00:37:40;;;;;;;6.05;3.05;;;;;;;;;;4996268;28;20046;-86
2023/09/03 00:40:08;;;;;;;3.72;2.90;;;;;;;;;;4979371;28;20058;-86
2023/09/03 00:42:36;;;;;;;6.05;3.33;;;;;;;;;;4977311;28;20058;-86
2023/09/03 00:45:03;;;;;;;6.80;3.08;;;;;;;;;;4996480;28;20073;-87
2023/09/03 00:47:31;;;;;;;4.75;2.95;;;;;;;;;;4978344;28;20054;-86
2023/09/03 00:49:58;;;;;;;3.45;3.15;;;;;;;;;;4978898;28;20137;-86
2023/09/03 00:52:26;;;;;;;3.08;2.80;;;;;;;;;;4979131;28;20050;-86
2023/09/03 00:54:54;;;;;;;5.90;3.47;;;;;;;;;;4980250;28;20109;-86
2023/09/03 00:57:21;;;;;;;5.72;2.97;;;;;;;;;;4998461;28;20561;-86
2023/09/03 00:59:48;;;;;;;7.88;3.20;;;;;;;;;;4979393;28;20093;-86
2023/09/03 01:02:19;;;;;;;3.30;3.05;;;;;;;;;;4996363;28;20093;-86
2023/09/03 01:04:47;;;;;;;4.32;3.20;;;;;;;;;;4979078;28;20046;-86
2023/09/03 01:07:14;;;;;;;8.48;3.80;;;;;;;;;;4978699;28;20084;-86
2023/09/03 01:09:41;;;;;;;3.67;3.38;;;;;;;;;;4995754;28;20050;-86
2023/09/03 01:12:09;;;;;;;5.47;2.95;;;;;;;;;;4978834;28;20081;-86
2023/09/03 01:14:36;;;;;;;6.63;3.45;;;;;;;;;;4995981;28;20058;-86
2023/09/03 01:17:19;;;;;;;3.90;3.30;;;;;;;;;;4978998;28;20078;-86
2023/09/03 01:19:52;;;;;;;5.18;3.67;;;;;;;;;;4995835;28;20054;-85
2023/09/03 01:22:27;;;;;;;6.18;3.75;;;;;;;;;;4995672;28;20116;-85
2023/09/03 01:25:13;;;;;;;9.43;3.78;;;;;;;;;;4978808;28;20055;-86
2023/09/03 01:27:43;;;;;;;4.40;3.67;;;;;;;;;;4978775;28;20470;-87
2023/09/03 01:30:10;;;;;;;4.55;4.18;;;;;;;;;;4978715;28;20109;-86
2023/09/03 01:32:38;;;;;;;3.85;3.38;;;;;;;;;;4978755;28;20043;-87
2023/09/03 01:35:07;;;;;;;8.50;4.05;;;;;;;;;;4979135;28;20072;-87
2023/09/03 01:37:35;;;;;;;7.70;4.18;;;;;;;;;;4995571;28;20116;-86
2023/09/03 01:40:04;;;;;;;5.82;3.78;;;;;;;;;;4979646;28;20142;-86
2023/09/03 01:42:32;;;;;;;6.25;4.00;;;;;;;;;;4995461;28;20059;-86
2023/09/03 01:45:00;;;;;;;3.88;3.58;;;;;;;;;;4978619;28;20105;-87
2023/09/03 01:47:34;;;;;;;3.65;3.33;;;;;;;;;;4978402;28;20054;-86
2023/09/03 01:50:08;;;;;;;4.93;4.00;;;;;;;;;;4978652;28;20501;-86
2023/09/03 01:52:39;;;;;;;4.43;4.00;;;;;;;;;;4995465;28;20050;-86
2023/09/03 01:55:09;;;;;;;7.47;4.05;;;;;;;;;;4994794;28;20101;-87
2023/09/03 01:57:52;;;;;;;7.35;3.75;;;;;;;;;;4978482;28;20109;-86
2023/09/03 02:00:20;;;;;;;5.75;4.25;;;;;;;;;;4995270;28;20096;-86
2023/09/03 02:02:49;;;;;;;6.50;3.70;;;;;;;;;;4994519;28;20047;-86
2023/09/03 02:05:17;;;;;;;4.20;3.80;;;;;;;;;;4995177;28;20049;-86
2023/09/03 02:07:45;;;;;;;3.85;3.55;;;;;;;;;;4994788;28;20046;-87
2023/09/03 02:10:12;;;;;;;5.93;3.50;;;;;;;;;;4978018;28;20124;-86
2023/09/03 02:12:39;;;;;;;4.18;3.33;;;;;;;;;;4977396;28;20050;-87
2023/09/03 02:15:07;;;;;;;9.77;4.22;;;;;;;;;;4977506;28;20046;-87
2023/09/03 02:17:34;;;;;;;6.93;4.28;;;;;;;;;;4977308;28;20054;-86
2023/09/03 02:20:01;;;;;;;3.78;3.30;;;;;;;;;;4977289;28;20054;-86
2023/09/03 02:22:29;;;;;;;6.35;3.53;;;;;;;;;;4994529;28;20093;-87
2023/09/03 02:24:56;;;;;;;3.90;3.55;;;;;;;;;;4977278;28;20138;-87
2023/09/03 02:27:24;;;;;;;3.65;3.35;;;;;;;;;;4977152;28;20054;-86
2023/09/03 02:29:51;;;;;;;4.10;3.72;;;;;;;;;;4994251;28;20054;-86
2023/09/03 02:32:18;;;;;;;6.55;3.58;;;;;;;;;;4977268;28;20112;-87
2023/09/03 02:34:45;;;;;;;4.20;3.72;;;;;;;;;;4994379;28;20054;-87
2023/09/03 02:37:13;;;;;;;6.97;3.80;;;;;;;;;;4976853;28;20046;-86
2023/09/03 02:39:41;;;;;;;11.70;3.40;;;;;;;;;;4994490;28;20054;-87
2023/09/03 02:42:08;;;;;;;3.75;3.42;;;;;;;;;;4977102;28;20050;-87
2023/09/03 02:44:35;;;;;;;3.53;3.30;;;;;;;;;;4976761;28;20047;-86
2023/09/03 02:47:03;;;;;;;7.30;3.50;;;;;;;;;;4977054;28;20117;-86
2023/09/03 02:49:30;;;;;;;3.42;3.08;;;;;;;;;;4976762;28;20097;-86
2023/09/03 02:51:58;;;;;;;5.25;3.40;;;;;;;;;;4976880;28;20074;-86
2023/09/03 02:54:25;;;;;;;3.72;3.20;;;;;;;;;;4976967;28;20498;-87
2023/09/03 02:56:53;;;;;;;5.25;3.28;;;;;;;;;;4993966;28;20050;-86
2023/09/03 02:59:20;;;;;;;6.75;3.40;;;;;;;;;;4977026;28;20081;-87
2023/09/03 03:01:47;;;;;;;4.18;2.95;;;;;;;;;;4994022;28;20095;-85
2023/09/03 03:04:14;;;;;;;5.07;3.50;;;;;;;;;;4993743;28;20502;-87
2023/09/03 03:06:42;;;;;;;6.57;3.90;;;;;;;;;;4976409;28;20113;-85
2023/09/03 03:09:09;;;;;;;8.18;3.78;;;;;;;;;;4976791;28;20478;-86
2023/09/03 03:11:36;;;;;;;8.27;4.20;;;;;;;;;;4993422;28;20058;-86
2023/09/03 03:14:04;;;;;;;7.68;4.30;;;;;;;;;;4976776;28;20050;-86
2023/09/03 03:16:31;;;;;;;5.88;4.05;;;;;;;;;;4976251;28;20042;-86
2023/09/03 03:18:59;;;;;;;3.97;3.78;;;;;;;;;;4976444;28;20105;-86
2023/09/03 03:21:26;;;;;;;4.82;3.60;;;;;;;;;;4993679;28;20456;-86
2023/09/03 03:23:53;;;;;;;5.63;4.65;;;;;;;;;;4976564;28;20054;-86
2023/09/03 03:26:21;;;;;;;7.30;4.43;;;;;;;;;;4976294;28;20046;-85
2023/09/03 03:28:48;;;;;;;4.13;3.85;;;;;;;;;;4993580;28;20085;-86
2023/09/03 03:31:16;;;;;;;6.25;4.38;;;;;;;;;;4976349;28;20161;-86
2023/09/03 03:33:44;;;;;;;4.25;3.85;;;;;;;;;;4976584;28;20050;-87
2023/09/03 03:36:13;;;;;;;5.65;3.40;;;;;;;;;;4976471;28;20057;-87
2023/09/03 03:38:41;;;;;;;4.03;3.83;;;;;;;;;;4976070;28;20054;-86
2023/09/03 03:41:11;;;;;;;5.20;3.42;;;;;;;;;;4976099;28;20133;-86
2023/09/03 03:43:40;;;;;;;3.22;3.03;;;;;;;;;;4976148;28;20109;-86
2023/09/03 03:46:08;;;;;;;3.42;3.22;;;;;;;;;;4976566;28;20082;-87
2023/09/03 03:48:35;;;;;;;4.38;3.28;;;;;;;;;;4993794;28;20134;-86
2023/09/03 03:51:03;;;;;;;5.80;3.97;;;;;;;;;;4976019;28;20054;-87
2023/09/03 03:53:31;;;;;;;7.05;3.25;;;;;;;;;;4993193;28;20046;-86
2023/09/03 03:55:58;;;;;;;3.65;3.40;;;;;;;;;;4975725;28;20125;-86
2023/09/03 03:58:28;;;;;;;4.55;4.15;;;;;;;;;;4976098;28;20124;-86
2023/09/03 04:00:55;;;;;;;5.68;4.20;;;;;;;;;;4993448;28;20054;-86
2023/09/03 04:03:23;;;;;;;5.82;4.00;;;;;;;;;;4993254;28;20411;-86
2023/09/03 04:06:00;;;;;;;4.32;3.88;;;;;;;;;;4976284;28;20145;-86
2023/09/03 04:08:28;;;;;;;6.03;4.10;;;;;;;;;;4995651;28;20064;-86
2023/09/03 04:10:56;;;;;;;7.10;3.85;;;;;;;;;;4975781;28;20576;-85
2023/09/03 04:13:24;;;;;;;4.95;3.70;;;;;;;;;;4993185;28;20545;-86
2023/09/03 04:15:51;;;;;;;4.63;3.00;;;;;;;;;;4993154;28;20054;-85
2023/09/03 04:18:22;;;;;;;5.57;3.45;;;;;;;;;;4992631;28;20050;-86
2023/09/03 04:20:56;;;;;;;3.80;3.50;;;;;;;;;;4992778;28;20101;-86
2023/09/03 04:23:27;;;;;;;3.25;2.85;;;;;;;;;;4975639;28;20046;-86
2023/09/03 04:25:56;;;;;;;5.82;3.15;;;;;;;;;;4978402;28;20506;-86
2023/09/03 04:28:23;;;;;;;20.75;5.32;;;;;;;;;;4979163;28;20085;-85
2023/09/03 04:30:59;;;;;;;5.75;3.60;;;;;;;;;;4996621;28;20085;-86
2023/09/03 04:33:27;;;;;;;9.52;4.40;;;;;;;;;;4996154;28;20070;-86
2023/09/03 04:35:55;;;;;;;7.45;4.47;;;;;;;;;;4995990;28;20050;-86
2023/09/03 04:38:23;;;;;;;7.28;3.83;;;;;;;;;;4996438;28;20129;-86
2023/09/03 04:40:50;;;;;;;3.65;3.38;;;;;;;;;;4978923;28;20055;-86
2023/09/03 04:43:18;;;;;;;6.10;3.63;;;;;;;;;;4978864;28;20054;-86
2023/09/03 04:45:49;;;;;;;7.10;3.30;;;;;;;;;;4978979;28;20071;-86
2023/09/03 04:48:17;;;;;;;4.65;3.97;;;;;;;;;;4975046;28;20042;-86
2023/09/03 04:50:45;;;;;;;10.90;4.00;;;;;;;;;;4979091;28;20141;-86
2023/09/03 04:53:12;;;;;;;5.78;3.63;;;;;;;;;;4978979;28;20422;-86
2023/09/03 04:55:40;;;;;;;11.00;4.30;;;;;;;;;;4978679;28;20047;-85
2023/09/03 04:58:08;;;;;;;7.53;4.00;;;;;;;;;;4996226;28;20074;-86
2023/09/03 05:00:35;;;;;;;4.57;4.25;;;;;;;;;;4978592;28;20529;-86
2023/09/03 05:03:05;;;;;;;6.65;4.30;;;;;;;;;;4979040;28;20054;-85
2023/09/03 05:05:42;;;;;;;5.55;4.30;;;;;;;;;;4978303;28;20053;-86
2023/09/03 05:08:09;;;;;;;8.50;4.00;;;;;;;;;;4995855;28;20050;-86
2023/09/03 05:10:38;;;;;;;5.97;4.22;;;;;;;;;;4978458;28;20142;-85
2023/09/03 05:13:06;;;;;;;5.07;4.60;;;;;;;;;;4995737;28;20471;-86
2023/09/03 05:15:34;;;;;;;8.05;4.13;;;;;;;;;;4978105;28;20062;-84
2023/09/03 05:18:02;;;;;;;7.70;4.55;;;;;;;;;;4978404;28;20046;-86
2023/09/03 05:20:29;;;;;;;5.80;3.75;;;;;;;;;;4995602;28;20052;-86
2023/09/03 05:22:56;;;;;;;4.00;3.75;;;;;;;;;;4978412;28;20082;-85
2023/09/03 05:25:24;;;;;;;4.07;3.38;;;;;;;;;;4978239;28;20046;-86
2023/09/03 05:27:51;;;;;;;14.48;6.10;;;;;;;;;;4978221;28;20050;-86
2023/09/03 05:30:19;;;;;;;10.25;6.13;;;;;;;;;;4978247;28;20050;-86
2023/09/03 05:32:47;;;;;;;6.45;4.35;;;;;;;;;;4978284;28;20046;-86
2023/09/03 05:35:14;;;;;;;7.28;3.80;;;;;;;;;;4977473;28;20468;-86
2023/09/03 05:37:41;;;;;;;6.95;3.92;;;;;;;;;;4976835;28;20046;-86
2023/09/03 05:40:10;;;;;;;7.45;3.20;;;;;;;;;;4977969;28;20046;-86
2023/09/03 05:42:37;;;;;;;3.00;2.75;;;;;;;;;;4995015;28;20062;-86
2023/09/03 05:45:05;;;;;;;4.70;2.83;;;;;;;;;;4977933;28;20050;-85
2023/09/03 05:47:35;;;;;;;2.60;2.50;;;;;;;;;;4977270;28;20128;-86
2023/09/03 05:50:02;;;;;;;2.63;2.30;;;;;;;;;;4978198;28;20134;-86
2023/09/03 05:52:29;;;;;;;4.45;2.78;;;;;;;;;;4994854;28;20050;-86
2023/09/03 05:54:57;;;;;;;2.90;2.10;;;;;;;;;;4977529;28;20511;-86
2023/09/03 05:57:24;;;;;;;2.60;2.22;;;;;;;;;;4977238;28;20101;-86
2023/09/03 05:59:51;;;;;;;4.03;2.40;;;;;;;;;;4977857;28;20054;-86
2023/09/03 06:02:18;;;;;;;2.63;2.42;;;;;;;;;;4977503;28;20050;-85
2023/09/03 06:04:46;;;;;;;4.82;2.20;;;;;;;;;;4994492;28;20050;-85
2023/09/03 06:07:13;;;;;;;4.15;2.13;;;;;;;;;;4994380;28;20057;-86
2023/09/03 06:09:41;;;;;;;2.38;1.90;;;;;;;;;;4977212;28;20552;-86
2023/09/03 06:12:08;;;;;;;8.25;2.20;;;;;;;;;;4994747;28;20050;-86
2023/09/03 06:14:36;;;;;;;1.92;1.83;;;;;;;;;;4977440;28;20050;-86
2023/09/03 06:17:07;;;;;;;7.10;2.38;;;;;;;;;;4977335;28;20050;-86
2023/09/03 06:19:34;;;;;;;9.32;2.60;;;;;;;;;;4977016;28;20046;-86
2023/09/03 06:22:01;;;;;;;2.72;2.53;;;;;;;;;;4994057;28;20081;-86
2023/09/03 06:24:28;;;;;;;6.28;2.42;;;;;;;;;;4994192;28;20042;-86
2023/09/03 06:26:57;;;;;;;8.07;2.20;;;;;;;;;;4994342;28;20414;-86
2023/09/03 06:29:26;;;;;;;2.63;2.17;;;;;;;;;;4976392;28;20061;-86
2023/09/03 06:31:53;;;;;;;3.65;2.10;;;;;;;;;;4993998;28;20050;-85
2023/09/03 06:34:20;;;;;;;4.10;2.00;;;;;;;;;;4976871;28;20050;-86
2023/09/03 06:36:48;;;;;;;2.47;1.90;;;;;;;;;;4994717;28;20058;-86
2023/09/03 06:39:15;;;;;;;5.28;2.00;;;;;;;;;;4995658;28;20142;-86
2023/09/03 06:41:42;;;;;;;5.07;1.75;;;;;;;;;;4993849;28;20046;-86
2023/09/03 06:44:10;;;;;;;6.32;2.22;;;;;;;;;;4992483;28;20086;-86
2023/09/03 06:46:38;;;;;;;3.40;1.90;;;;;;;;;;4992744;28;20133;-85
2023/09/03 06:49:05;;;;;;;3.42;2.10;;;;;;;;;;4976240;28;20058;-86
2023/09/03 06:51:33;;;;;;;2.00;1.90;;;;;;;;;;4976322;28;20499;-86
2023/09/03 06:54:00;;;;;;;2.50;1.95;;;;;;;;;;4993261;28;20068;-86
2023/09/03 06:56:27;;;;;;;4.35;2.58;;;;;;;;;;4976573;28;20054;-86
2023/09/03 06:58:55;;;;;;;5.68;1.98;;;;;;;;;;4993182;28;20042;-85
2023/09/03 07:01:22;;;;;;;3.45;1.90;;;;;;;;;;4993404;28;20061;-86
2023/09/03 07:03:50;;;;;;;4.80;2.03;;;;;;;;;;4976197;28;20078;-86
2023/09/03 07:06:17;;;;;;;3.40;1.67;;;;;;;;;;4993646;28;20061;-86
2023/09/03 07:08:44;;;;;;;12.90;2.65;;;;;;;;;;4976200;28;20490;-86
2023/09/03 07:11:11;;;;;;;3.85;2.00;;;;;;;;;;4993550;28;20089;-86
2023/09/03 07:13:39;;;;;;;8.13;2.28;;;;;;;;;;4993385;28;20056;-86
2023/09/03 07:16:06;;;;;;;5.72;1.80;;;;;;;;;;4993275;28;20046;-85
2023/09/03 07:18:33;;;;;;;4.53;2.33;;;;;;;;;;4993773;28;20396;-85
2023/09/03 07:21:05;;;;;;;6.22;2.40;;;;;;;;;;4993243;28;20105;-86
2023/09/03 07:23:32;;;;;;;4.75;2.22;;;;;;;;;;4992827;28;20051;-86
2023/09/03 07:26:06;;;;;;;4.55;2.15;;;;;;;;;;4976070;28;20495;-86
2023/09/03 07:28:34;;;;;;;4.53;2.50;;;;;;;;;;4975965;28;20050;-85
2023/09/03 07:31:01;;;;;;;8.00;3.42;;;;;;;;;;4975243;28;20054;-85
2023/09/03 07:33:29;;;;;;;3.33;2.70;;;;;;;;;;4968263;28;20058;-85
2023/09/03 07:35:57;;;;;;;4.63;2.63;;;;;;;;;;4972946;28;20042;-85
2023/09/03 07:38:27;;;;;;;4.65;4.00;;;;;;;;;;4973654;28;20058;-85
2023/09/03 07:40:57;;;;;;;6.32;4.38;;;;;;;;;;4971032;28;20057;-85
2023/09/03 07:43:24;;;;;;;4.18;3.80;;;;;;;;;;4975537;28;20063;-85
2023/09/03 07:45:51;;;;;;;6.05;4.50;;;;;;;;;;4992098;28;20051;-87
2023/09/03 07:48:20;;;;;;;4.38;3.97;;;;;;;;;;4975725;28;20051;-85
2023/09/03 07:50:47;;;;;;;4.13;3.83;;;;;;;;;;4976128;28;20046;-85
2023/09/03 07:53:14;;;;;;;6.57;4.68;;;;;;;;;;4977803;28;20046;-85
2023/09/03 07:55:41;;;;;;;8.10;3.85;;;;;;;;;;4992767;28;20394;-85
2023/09/03 07:58:09;;;;;;;4.13;3.47;;;;;;;;;;4975986;28;20395;-85
2023/09/03 08:00:36;;;;;;;3.67;3.40;;;;;;;;;;4995484;28;20050;-85
2023/09/03 08:03:04;;;;;;;7.78;4.45;;;;;;;;;;4996625;28;20058;-86
2023/09/03 08:05:31;;;;;;;5.38;4.88;;;;;;;;;;4979036;28;20517;-86
2023/09/03 08:07:59;;;;;;;5.43;4.90;;;;;;;;;;4978881;28;20058;-86
2023/09/03 08:10:26;;;;;;;4.95;4.50;;;;;;;;;;4996255;28;20069;-85
2023/09/03 08:12:54;;;;;;;4.40;4.00;;;;;;;;;;4978797;28;20121;-86
2023/09/03 08:15:21;;;;;;;5.28;4.55;;;;;;;;;;4996460;28;20084;-86
2023/09/03 08:18:07;;;;;;;5.03;4.53;;;;;;;;;;4982398;28;20093;-85
2023/09/03 08:20:35;;;;;;;4.80;4.40;;;;;;;;;;4977892;28;20049;-85
2023/09/03 08:23:02;;;;;;;5.07;4.15;;;;;;;;;;4995166;28;20047;-85
2023/09/03 08:25:30;;;;;;;4.88;4.47;;;;;;;;;;4996085;28;20054;-86
2023/09/03 08:27:57;;;;;;;5.22;4.72;;;;;;;;;;4979602;28;20093;-86
2023/09/03 08:30:24;;;;;;;4.65;4.10;;;;;;;;;;4979293;28;20105;-86
2023/09/03 08:32:52;;;;;;;5.20;4.32;;;;;;;;;;4979468;28;20053;-86
2023/09/03 08:35:19;;;;;;;6.50;4.20;;;;;;;;;;4979184;28;20050;-86
2023/09/03 08:37:47;;;;;;;6.30;5.05;;;;;;;;;;4979282;28;20085;-87
2023/09/03 08:40:17;;;;;;;6.60;4.55;;;;;;;;;;4979570;28;20046;-86
2023/09/03 08:42:46;;;;;;;4.43;4.13;;;;;;;;;;4979055;28;20062;-86
2023/09/03 08:45:16;;;;;;;6.05;4.50;;;;;;;;;;4979183;28;20268;-85
2023/09/03 08:47:44;;;;;;;8.02;4.60;;;;;;;;;;4978737;28;20050;-85
2023/09/03 08:50:13;;;;;;;5.47;4.97;;;;;;;;;;4978846;28;20047;-85
2023/09/03 08:52:41;;;;;;;4.65;3.72;;;;;;;;;;4978862;28;20144;-86
2023/09/03 08:55:12;;;;;;;4.32;3.97;;;;;;;;;;4996561;28;20054;-86
2023/09/03 08:57:40;;;;;;;4.85;4.43;;;;;;;;;;4978944;28;20043;-88
2023/09/03 09:00:10;;;;;;;4.57;4.18;;;;;;;;;;4996245;28;20105;-85
2023/09/03 09:02:38;;;;;;;15.05;5.30;;;;;;;;;;4995961;28;20133;-86
2023/09/03 09:05:07;;;;;;;5.03;4.63;;;;;;;;;;4978883;28;20097;-86
2023/09/03 09:07:34;;;;;;;5.10;4.65;;;;;;;;;;4978435;28;20077;-84
2023/09/03 09:10:06;;;;;;;4.32;3.92;;;;;;;;;;4996076;28;20054;-84
2023/09/03 09:12:39;;;;;;;3.72;3.42;;;;;;;;;;4978535;28;20109;-86
2023/09/03 09:15:06;;;;;;;4.03;3.60;;;;;;;;;;4978254;28;20058;-87
2023/09/03 09:17:41;;;;;;;3.83;3.53;;;;;;;;;;4978508;28;20101;-86
2023/09/03 09:20:09;;;;;;;9.80;4.10;;;;;;;;;;4978696;28;20125;-86
2023/09/03 09:22:43;;;;;;;3.45;3.00;;;;;;;;;;4995682;28;20077;-86
2023/09/03 09:25:17;;;;;;;4.38;3.60;;;;;;;;;;5002685;28;20042;-87
2023/09/03 09:27:45;;;;;;;4.45;4.05;;;;;;;;;;5002238;28;20050;-86
2023/09/03 09:30:13;;;;;;;3.40;3.10;;;;;;;;;;4978857;28;20042;-86
2023/09/03 09:32:42;;;;;;;4.18;3.83;;;;;;;;;;4978106;28;20089;-87
2023/09/03 09:35:10;;;;;;;3.47;3.20;;;;;;;;;;4995840;28;20050;-86
2023/09/03 09:37:41;;;;;;;3.25;3.05;;;;;;;;;;4995112;28;20046;-86
2023/09/03 09:40:09;;;;;;;4.13;3.72;;;;;;;;;;4978355;28;20050;-86
2023/09/03 09:42:52;;;;;;;5.60;3.92;;;;;;;;;;4994970;28;20062;-88
2023/09/03 09:45:20;;;;;;;4.40;4.03;;;;;;;;;;4978207;28;20105;-87
2023/09/03 09:47:49;;;;;;;5.15;3.55;;;;;;;;;;4978496;28;20046;-87
2023/09/03 09:50:31;;;;;;;4.20;3.45;;;;;;;;;;4978069;28;20047;-85
2023/09/03 09:52:58;;;;;;;5.38;3.80;;;;;;;;;;4995203;28;20148;-88
2023/09/03 09:55:27;;;;;;;5.55;4.10;;;;;;;;;;4977906;28;20517;-91
2023/09/03 09:57:54;;;;;;;4.97;4.57;;;;;;;;;;4977336;28;20073;-87
2023/09/03 10:00:34;;;;;;;3.65;3.33;;;;;;;;;;4995109;28;20097;-87
2023/09/03 10:03:02;;;;;;;3.20;3.00;;;;;;;;;;4977889;28;20483;-87
2023/09/03 10:05:29;;;;;;;5.65;3.60;;;;;;;;;;4978142;28;20410;-87
2023/09/03 10:07:57;;;;;;;3.75;3.45;;;;;;;;;;4977151;28;20046;-87
2023/09/03 10:10:25;;;;;;;3.75;3.22;;;;;;;;;;4978023;28;20097;-87
2023/09/03 10:12:52;;;;;;;4.75;3.70;;;;;;;;;;4977347;28;20112;-87
2023/09/03 10:15:20;;;;;;;4.15;3.85;;;;;;;;;;4970797;28;20046;-88
2023/09/03 10:17:51;;;;;;;4.28;3.95;;;;;;;;;;4974016;28;20054;-86
2023/09/03 10:20:20;;;;;;;5.50;3.50;;;;;;;;;;4985790;28;20129;-86
2023/09/03 10:22:48;;;;;;;3.38;3.17;;;;;;;;;;4986852;28;20042;-87
2023/09/03 10:25:19;;;;;;;3.70;3.40;;;;;;;;;;4968530;28;20404;-87
2023/09/03 10:27:53;;;;;;;3.38;3.10;;;;;;;;;;4974703;28;20081;-86
2023/09/03 10:30:24;;;;;;;2.95;2.50;;;;;;;;;;4977228;28;20082;-87
2023/09/03 10:32:52;;;;;;;3.25;2.95;;;;;;;;;;4977167;28;20054;-88
2023/09/03 10:35:20;;;;;;;5.47;3.10;;;;;;;;;;4977187;28;20181;-87
2023/09/03 10:37:50;;;;;;;5.10;3.03;;;;;;;;;;4976775;28;20050;-88
2023/09/03 10:40:21;;;;;;;3.67;3.38;;;;;;;;;;4976991;28;20101;-89
2023/09/03 10:42:49;;;;;;;3.67;2.92;;;;;;;;;;4976910;28;20058;-86
2023/09/03 10:45:18;;;;;;;4.78;2.50;;;;;;;;;;4994545;28;20077;-87
2023/09/03 10:48:02;;;;;;;5.70;2.80;;;;;;;;;;4977161;28;20078;-87
2023/09/03 10:50:48;;;;;;;2.45;2.30;;;;;;;;;;4977044;28;20102;-87
2023/09/03 10:53:34;;;;;;;4.03;2.45;;;;;;;;;;4976684;28;20058;-87
2023/09/03 10:56:08;;;;;;;2.97;2.70;;;;;;;;;;4976863;28;20081;-86
2023/09/03 10:58:36;;;;;;;4.45;2.90;;;;;;;;;;4976943;28;20104;-87
2023/09/03 11:01:17;;;;;;;2.75;2.35;;;;;;;;;;4994173;28;20054;-88
2023/09/03 11:03:46;;;;;;;2.40;2.17;;;;;;;;;;4973938;28;20057;-87
2023/09/03 11:06:21;;;;;;;4.15;2.63;;;;;;;;;;4957756;28;20082;-88
2023/09/03 11:08:49;;;;;;;4.20;2.53;;;;;;;;;;4973138;28;20530;-86
2023/09/03 11:11:19;;;;;;;2.30;2.20;;;;;;;;;;4973822;28;20470;-88
2023/09/03 11:13:50;;;;;;;3.78;2.33;;;;;;;;;;4977116;28;20077;-89
2023/09/03 11:16:18;;;;;;;2.13;2.03;;;;;;;;;;4976691;28;20101;-87
2023/09/03 11:18:52;;;;;;;4.13;2.60;;;;;;;;;;4967954;28;20050;-87
2023/09/03 11:21:19;;;;;;;3.55;2.47;;;;;;;;;;4969376;28;20098;-89
2023/09/03 11:23:58;;;;;;;2.75;2.20;;;;;;;;;;4968553;28;20089;-88
2023/09/03 11:26:25;;;;;;;1.90;1.80;;;;;;;;;;4969915;28;20054;-87
2023/09/03 11:28:53;;;;;;;2.42;2.22;;;;;;;;;;4972988;28;20078;-88
2023/09/03 11:31:20;;;;;;;2.25;2.15;;;;;;;;;;4957633;28;20110;-88
2023/09/03 11:33:48;;;;;;;2.53;2.30;;;;;;;;;;4976777;28;20140;-89
2023/09/03 11:36:15;;;;;;;2.28;2.17;;;;;;;;;;4980503;28;20117;-86
2023/09/03 11:38:42;;;;;;;3.13;2.20;;;;;;;;;;4997687;28;20085;-89
2023/09/03 11:41:10;;;;;;;1.92;1.83;;;;;;;;;;4997952;28;20066;-88
2023/09/03 11:43:37;;;;;;;1.80;1.70;;;;;;;;;;4997403;28;20148;-88
2023/09/03 11:46:12;;;;;;;2.45;1.63;;;;;;;;;;4980611;28;20085;-88
2023/09/03 11:48:40;;;;;;;2.42;1.83;;;;;;;;;;4997947;28;20466;-88
2023/09/03 11:51:07;;;;;;;2.13;2.03;;;;;;;;;;4997546;28;20092;-87
2023/09/03 11:53:43;;;;;;;3.08;1.83;;;;;;;;;;4997148;28;20050;-88
2023/09/03 11:56:12;;;;;;;2.00;1.90;;;;;;;;;;4997663;28;20113;-88
2023/09/03 11:58:40;;;;;;;2.78;1.90;;;;;;;;;;4997461;28;20081;-87
2023/09/03 12:01:08;;;;;;;2.42;2.22;;;;;;;;;;4980805;28;20050;-88
2023/09/03 12:03:38;;;;;;;5.68;1.80;;;;;;;;;;4980441;28;20046;-89
2023/09/03 12:06:05;;;;;;;2.40;2.20;;;;;;;;;;4980563;28;20149;-89
2023/09/03 12:08:33;;;;;;;2.28;2.08;;;;;;;;;;4998437;28;20106;-86
2023/09/03 12:11:00;;;;;;;2.85;2.28;;;;;;;;;;5006081;28;20114;-88
2023/09/03 12:13:29;;;;;;;2.15;1.70;;;;;;;;;;4985922;28;20058;-87
2023/09/03 12:16:06;;;;;;;2.90;2.50;;;;;;;;;;4980014;28;20050;-86
2023/09/03 12:18:34;;;;;;;2.78;1.95;;;;;;;;;;4979899;28;20061;-90
2023/09/03 12:21:02;;;;;;;2.20;1.80;;;;;;;;;;4997197;28;20050;-87
2023/09/03 12:23:30;;;;;;;1.75;1.65;;;;;;;;;;4996773;28;20085;-86
2023/09/03 12:25:57;;;;;;;2.40;2.20;;;;;;;;;;4991002;28;20046;-88
2023/09/03 12:28:34;;;;;;;2.30;2.10;;;;;;;;;;4986684;28;20050;-87
2023/09/03 12:31:03;;;;;;;2.08;1.98;;;;;;;;;;4979454;28;20101;-88
2023/09/03 12:33:33;;;;;;;2.10;1.90;;;;;;;;;;4995825;28;20054;-85
2023/09/03 12:36:06;;;;;;;2.20;2.00;;;;;;;;;;4978924;28;20499;-88
2023/09/03 12:38:33;;;;;;;;;;;;;;;;;;4979538;28;20051;-87
2023/09/03 12:41:01;;;;;;;1.95;1.85;;;;;;;;;;4996438;28;19976;-87
2023/09/03 12:43:37;;;;;;;2.08;1.90;;;;;;;;;;4994393;28;20065;-88
2023/09/03 12:46:05;;;;;;;1.70;1.65;;;;;;;;;;4995621;28;20395;-87
2023/09/03 12:48:32;;;;;;;2.15;2.05;;;;;;;;;;4996614;28;20136;-90
2023/09/03 12:50:59;;;;;;;2.38;2.17;;;;;;;;;;4996689;28;20058;-88
2023/09/03 12:53:27;;;;;;;2.80;2.58;;;;;;;;;;4979119;28;20051;-87
2023/09/03 12:55:55;;;;;;;1.98;1.88;;;;;;;;;;4979221;28;20106;-84
2023/09/03 12:58:23;;;;;;;2.00;1.90;;;;;;;;;;4996466;28;20054;-86
2023/09/03 13:00:50;;;;;;;2.53;2.33;;;;;;;;;;4979171;28;20093;-87
2023/09/03 13:03:18;;;;;;;2.10;2.00;;;;;;;;;;4979154;28;20046;-88
2023/09/03 13:05:45;;;;;;;3.92;2.38;;;;;;;;;;4996007;28;20050;-86
2023/09/03 13:08:13;;;;;;;3.08;2.30;;;;;;;;;;4996117;28;20081;-84
2023/09/03 13:10:41;;;;;;;2.78;1.90;;;;;;;;;;4996051;28;20077;-87
2023/09/03 13:13:09;;;;;;;2.30;2.20;;;;;;;;;;4979193;28;20054;-93
2023/09/03 13:15:39;;;;;;;2.85;1.70;;;;;;;;;;4980321;28;20105;-89
2023/09/03 13:18:06;;;;;;;3.47;2.00;;;;;;;;;;4979188;28;20085;-88
2023/09/03 13:20:34;;;;;;;2.20;2.10;;;;;;;;;;4978804;28;20053;-89
2023/09/03 13:23:02;;;;;;;2.20;1.80;;;;;;;;;;4978553;28;20100;-88
2023/09/03 13:25:29;;;;;;;2.35;2.03;;;;;;;;;;4978667;28;20050;-84
2023/09/03 13:28:01;;;;;;;2.15;1.98;;;;;;;;;;4979539;28;20054;-86
2023/09/03 13:30:28;;;;;;;3.83;1.70;;;;;;;;;;4979012;28;20109;-89
2023/09/03 13:32:56;;;;;;;2.00;1.90;;;;;;;;;;4978526;28;20145;-88
2023/09/03 13:35:25;;;;;;;1.90;1.80;;;;;;;;;;4995482;28;20053;-87
2023/09/03 13:37:52;;;;;;;2.28;2.05;;;;;;;;;;4978500;28;20050;-89
2023/09/03 13:40:19;;;;;;;1.63;1.52;;;;;;;;;;4978219;28;20046;-88
2023/09/03 13:42:46;;;;;;;2.63;1.73;;;;;;;;;;4995492;28;20384;-89
2023/09/03 13:45:14;;;;;;;1.92;1.70;;;;;;;;;;4995735;28;20050;-90
2023/09/03 13:47:41;;;;;;;1.73;1.50;;;;;;;;;;4978558;28;20388;-88
2023/09/03 13:50:11;;;;;;;3.83;3.55;;;;;;;;;;4979212;28;20092;-90
2023/09/03 13:52:38;;;;;;;1.83;1.73;;;;;;;;;;4995212;28;20058;-86
2023/09/03 13:55:06;;;;;;;1.95;1.70;;;;;;;;;;4978448;28;20054;-85
2023/09/03 13:57:34;;;;;;;2.50;1.83;;;;;;;;;;4994315;28;20050;-89
2023/09/03 14:00:03;;;;;;;2.08;1.90;;;;;;;;;;4978513;28;20085;-90
2023/09/03 14:02:31;;;;;;;2.17;2.08;;;;;;;;;;4977929;28;20050;-88
2023/09/03 14:04:58;;;;;;;1.92;1.80;;;;;;;;;;4974697;28;20134;-88
2023/09/03 14:07:25;;;;;;;1.83;1.73;;;;;;;;;;4993337;28;20054;-88
2023/09/03 14:09:54;;;;;;;2.10;1.60;;;;;;;;;;4995046;28;20499;-88
2023/09/03 14:12:21;;;;;;;2.38;1.95;;;;;;;;;;4978214;28;20105;-87
2023/09/03 14:14:48;;;;;;;2.22;2.05;;;;;;;;;;4977648;28;20502;-86
2023/09/03 14:17:16;;;;;;;2.00;1.90;;;;;;;;;;4977910;28;20073;-87
2023/09/03 14:19:43;;;;;;;2.13;2.03;;;;;;;;;;4977738;28;20058;-88
2023/09/03 14:22:10;;;;;;;2.75;2.25;;;;;;;;;;4977639;28;20349;-86
2023/09/03 14:24:37;;;;;;;1.75;1.65;;;;;;;;;;4995002;28;20086;-87
2023/09/03 14:27:05;;;;;;;2.33;2.03;;;;;;;;;;4977928;28;20101;-87
2023/09/03 14:29:32;;;;;;;1.33;1.30;;;;;;;;;;4977535;28;20104;-88
2023/09/03 14:32:00;;;;;;;1.60;1.50;;;;;;;;;;4994877;28;20054;-89
2023/09/03 14:34:28;;;;;;;1.88;1.65;;;;;;;;;;4994490;28;20051;-88
2023/09/03 14:36:55;;;;;;;1.63;1.52;;;;;;;;;;4977590;28;20491;-87
2023/09/03 14:39:22;;;;;;;2.17;2.03;;;;;;;;;;4977433;28;20578;-86
2023/09/03 14:41:50;;;;;;;2.72;2.13;;;;;;;;;;4977384;28;20141;-87
2023/09/03 14:44:17;;;;;;;2.85;1.77;;;;;;;;;;4977378;28;20464;-88
2023/09/03 14:46:45;;;;;;;2.65;1.60;;;;;;;;;;4977366;28;20078;-88
2023/09/03 14:49:12;;;;;;;2.83;2.30;;;;;;;;;;4977581;28;20046;-89
2023/09/03 14:51:40;;;;;;;1.70;1.60;;;;;;;;;;4995793;28;20557;-88